Time;durP1;ratioP1;P1;durP2;ratioP2;P2;SDS_P1;SDS_P2;PMS_P1;PMS_P2;Temp;Humidity;BMP_temperature;BMP_pressure;BME280_temperature;BME280_humidity;BME280_pressure;Samples;Min_cycle;Max_cycle;Signal;HPM_P1;HPM_P2
2022/11/12 00:00:32;;;;;;;24.63;18.25;;;5.80;99.90;;;;;;5057411;28;20124;-71
2022/11/12 00:02:57;;;;;;;19.63;14.75;;;5.80;99.90;;;;;;5049797;28;20054;-71
2022/11/12 00:05:23;;;;;;;19.60;15.07;;;5.70;99.90;;;;;;5038356;28;20080;-73
2022/11/12 00:07:49;;;;;;;21.17;15.15;;;5.70;99.90;;;;;;5057373;28;20033;-73
2022/11/12 00:10:15;;;;;;;21.20;15.45;;;5.70;99.90;;;;;;5057463;28;20033;-74
2022/11/12 00:12:41;;;;;;;21.77;16.30;;;5.70;99.90;;;;;;5057474;28;20349;-72
2022/11/12 00:15:07;;;;;;;22.15;16.70;;;5.60;99.90;;;;;;5039727;28;20048;-71
2022/11/12 00:17:35;;;;;;;30.05;21.08;;;5.60;99.90;;;;;;5050438;28;20042;-71
2022/11/12 00:20:01;;;;;;;25.08;18.23;;;5.60;99.90;;;;;;5045538;28;20510;-71
2022/11/12 00:22:26;;;;;;;26.45;17.40;;;5.60;99.90;;;;;;5049353;28;20110;-73
2022/11/12 00:24:52;;;;;;;20.48;16.92;;;5.60;99.90;;;;;;5056901;28;20052;-72
2022/11/12 00:27:18;;;;;;;20.48;16.75;;;5.60;99.90;;;;;;5039552;28;20480;-73
2022/11/12 00:29:43;;;;;;;23.48;16.63;;;5.60;99.90;;;;;;5057166;28;20049;-73
2022/11/12 00:32:10;;;;;;;21.02;16.92;;;5.60;99.90;;;;;;5056644;28;20361;-74
2022/11/12 00:34:36;;;;;;;20.80;16.13;;;5.60;99.90;;;;;;5027237;28;20041;-73
2022/11/12 00:37:01;;;;;;;27.08;20.23;;;5.50;99.90;;;;;;5008363;28;20052;-71
2022/11/12 00:39:27;;;;;;;26.30;18.27;;;5.50;99.90;;;;;;5056661;28;20377;-74
2022/11/12 00:41:53;;;;;;;24.80;18.27;;;5.60;99.90;;;;;;5056886;28;20037;-73
2022/11/12 00:44:19;;;;;;;24.48;17.95;;;5.50;99.90;;;;;;5038733;28;20045;-74
2022/11/12 00:46:45;;;;;;;22.42;16.38;;;5.50;99.90;;;;;;5056762;28;20040;-74
2022/11/12 00:49:10;;;;;;;19.98;15.50;;;5.50;99.90;;;;;;5053405;28;20037;-72
2022/11/12 00:51:36;;;;;;;25.77;17.88;;;5.40;99.90;;;;;;5029622;28;20072;-71
2022/11/12 00:54:02;;;;;;;25.20;18.25;;;5.40;99.90;;;;;;5056556;28;20045;-71
2022/11/12 00:56:28;;;;;;;21.75;17.10;;;5.40;99.90;;;;;;5044599;28;20050;-71
2022/11/12 00:58:53;;;;;;;26.23;19.52;;;5.40;99.90;;;;;;5055025;28;20033;-72
2022/11/12 01:01:22;;;;;;;23.10;17.73;;;5.40;99.90;;;;;;5055119;28;20052;-72
2022/11/12 01:03:47;;;;;;;26.83;18.67;;;5.40;99.90;;;;;;5018747;28;20053;-73
2022/11/12 01:06:16;;;;;;;25.60;19.80;;;5.30;99.90;;;;;;5048106;28;20052;-73
2022/11/12 01:08:42;;;;;;;30.70;21.67;;;5.30;99.90;;;;;;5038692;28;20120;-73
2022/11/12 01:11:13;;;;;;;34.63;23.10;;;5.30;99.90;;;;;;5033250;28;20046;-73
2022/11/12 01:13:41;;;;;;;25.33;19.20;;;5.30;99.90;;;;;;5055792;28;20036;-72
2022/11/12 01:16:10;;;;;;;25.48;19.55;;;5.30;99.90;;;;;;5038484;28;20032;-73
2022/11/12 01:18:35;;;;;;;26.75;21.27;;;5.30;99.90;;;;;;5043140;28;20040;-74
2022/11/12 01:21:02;;;;;;;24.75;19.33;;;5.30;99.90;;;;;;5056027;28;20091;-72
2022/11/12 01:23:30;;;;;;;34.00;24.73;;;5.30;99.90;;;;;;5056142;28;20033;-73
2022/11/12 01:25:56;;;;;;;38.88;26.55;;;5.30;99.90;;;;;;5044206;28;20041;-74
2022/11/12 01:28:21;;;;;;;31.27;23.05;;;5.30;99.90;;;;;;5038477;28;20120;-74
2022/11/12 01:30:47;;;;;;;38.30;25.40;;;5.40;99.90;;;;;;5038836;28;20362;-72
2022/11/12 01:33:13;;;;;;;27.25;20.33;;;5.30;99.90;;;;;;5022103;28;20071;-73
2022/11/12 01:35:38;;;;;;;31.42;22.20;;;5.30;99.90;;;;;;5055764;28;20445;-73
2022/11/12 01:38:04;;;;;;;37.08;24.33;;;5.20;99.90;;;;;;5055686;28;20053;-73
2022/11/12 01:40:31;;;;;;;30.08;23.45;;;5.20;99.90;;;;;;5027863;28;20120;-74
2022/11/12 01:42:57;;;;;;;34.15;23.98;;;5.30;99.90;;;;;;5037737;28;20045;-72
2022/11/12 01:45:22;;;;;;;29.17;21.98;;;5.20;99.90;;;;;;5055338;28;20041;-73
2022/11/12 01:47:50;;;;;;;33.05;23.20;;;5.20;99.90;;;;;;5055942;28;20449;-73
2022/11/12 01:50:32;;;;;;;37.60;26.95;;;5.20;99.90;;;;;;5055397;28;20041;-74
2022/11/12 01:53:02;;;;;;;33.25;26.05;;;5.20;99.90;;;;;;5038021;28;20041;-72
2022/11/12 01:55:33;;;;;;;32.92;24.67;;;5.20;99.90;;;;;;5021036;28;20046;-72
2022/11/12 01:58:02;;;;;;;34.72;26.48;;;5.20;99.90;;;;;;5019819;28;20075;-73
2022/11/12 02:00:27;;;;;;;39.45;27.58;;;5.20;99.90;;;;;;5055297;28;20041;-72
2022/11/12 02:03:07;;;;;;;42.17;28.88;;;5.20;99.90;;;;;;5055027;28;20361;-73
2022/11/12 02:05:33;;;;;;;32.00;23.45;;;5.10;99.90;;;;;;5055216;28;20055;-73
2022/11/12 02:08:00;;;;;;;32.20;25.30;;;5.40;99.90;;;;;;5055295;28;20330;-73
2022/11/12 02:10:26;;;;;;;30.92;23.35;;;5.10;99.90;;;;;;5040555;28;20457;-73
2022/11/12 02:15:39;;;;;;;30.55;23.25;;;5.10;99.90;;;;;;5055161;28;20044;-73
2022/11/12 02:18:05;;;;;;;35.00;25.00;;;5.10;99.90;;;;;;5054718;28;20047;-74
2022/11/12 02:20:36;;;;;;;41.63;30.42;;;5.10;99.90;;;;;;5037355;28;20041;-73
2022/11/12 02:23:02;;;;;;;35.90;25.10;;;5.10;99.90;;;;;;5055018;28;20071;-72
2022/11/12 02:25:28;;;;;;;34.42;24.13;;;5.60;99.90;;;;;;5047550;28;20080;-72
2022/11/12 02:27:55;;;;;;;37.95;26.60;;;5.00;99.90;;;;;;5054896;28;20440;-73
2022/11/12 02:30:35;;;;;;;34.80;26.13;;;5.00;99.90;;;;;;5054880;28;20124;-72
2022/11/12 02:33:01;;;;;;;31.15;22.02;;;4.90;99.90;;;;;;5054878;28;20385;-73
2022/11/12 02:35:26;;;;;;;35.50;24.92;;;4.90;99.90;;;;;;5020729;28;20128;-74
2022/11/12 02:37:52;;;;;;;32.42;23.92;;;4.90;99.90;;;;;;5036941;28;20373;-74
2022/11/12 02:40:18;;;;;;;41.40;28.27;;;4.80;99.90;;;;;;5025965;28;20067;-72
2022/11/12 02:42:43;;;;;;;34.28;25.08;;;4.80;99.90;;;;;;5054715;28;20052;-74
2022/11/12 02:45:10;;;;;;;34.90;25.80;;;5.40;99.90;;;;;;5054591;28;20041;-74
2022/11/12 02:47:35;;;;;;;28.27;22.85;;;4.80;99.90;;;;;;5054690;28;20041;-72
2022/11/12 02:50:02;;;;;;;27.92;22.80;;;4.80;99.90;;;;;;5024176;28;20076;-73
2022/11/12 02:52:27;;;;;;;33.45;25.00;;;4.80;99.90;;;;;;5034958;28;20044;-73
2022/11/12 02:54:53;;;;;;;33.63;27.30;;;4.70;99.90;;;;;;5054385;28;20051;-73
2022/11/12 02:57:18;;;;;;;33.10;25.85;;;4.70;99.90;;;;;;5041084;28;20084;-72
2022/11/12 02:59:44;;;;;;;40.78;27.83;;;4.70;99.90;;;;;;5037507;28;20445;-72
2022/11/12 03:02:10;;;;;;;37.22;27.58;;;5.30;99.90;;;;;;5049677;28;20046;-72
2022/11/12 03:04:35;;;;;;;39.50;26.48;;;4.70;99.90;;;;;;5023958;28;20442;-72
2022/11/12 03:07:01;;;;;;;33.70;26.20;;;4.70;99.90;;;;;;5052352;28;20124;-73
2022/11/12 03:09:26;;;;;;;33.58;24.67;;;4.70;99.90;;;;;;5040506;28;20131;-72
2022/11/12 03:11:52;;;;;;;36.95;27.95;;;4.70;99.90;;;;;;5058435;28;20045;-73
2022/11/12 03:14:18;;;;;;;34.60;24.33;;;4.60;99.90;;;;;;5040933;28;20041;-73
2022/11/12 03:16:43;;;;;;;35.10;28.00;;;4.50;99.90;;;;;;5058500;28;20372;-72
2022/11/12 03:19:09;;;;;;;40.17;29.48;;;4.50;99.90;;;;;;5048187;28;20041;-71
2022/11/12 03:21:34;;;;;;;37.88;28.58;;;4.50;99.90;;;;;;5024987;28;20037;-72
2022/11/12 03:24:01;;;;;;;31.33;25.30;;;4.50;99.90;;;;;;5029921;28;20128;-72
2022/11/12 03:26:26;;;;;;;40.42;30.52;;;4.60;99.90;;;;;;5038510;28;20100;-72
2022/11/12 03:28:55;;;;;;;39.30;29.15;;;4.90;99.90;;;;;;5058154;28;20048;-72
2022/11/12 03:31:20;;;;;;;30.27;25.23;;;4.50;99.90;;;;;;5058157;28;20087;-73
2022/11/12 03:33:46;;;;;;;33.80;26.48;;;4.70;99.90;;;;;;5048802;28;20049;-72
2022/11/12 03:36:12;;;;;;;40.20;30.10;;;4.50;99.90;;;;;;5037966;28;20369;-72
2022/11/12 03:38:40;;;;;;;37.88;27.33;;;4.40;99.90;;;;;;5040239;28;20045;-73
2022/11/12 03:41:05;;;;;;;35.50;27.27;;;4.40;99.90;;;;;;5055216;28;20048;-72
2022/11/12 03:43:34;;;;;;;38.70;28.67;;;4.40;99.90;;;;;;5040080;28;20049;-72
2022/11/12 03:46:00;;;;;;;35.40;26.05;;;4.40;99.90;;;;;;5040087;28;20441;-74
2022/11/12 03:48:26;;;;;;;35.42;26.55;;;4.40;99.90;;;;;;5049279;28;20351;-72
2022/11/12 03:50:55;;;;;;;42.35;30.25;;;4.40;99.90;;;;;;5055871;28;20102;-72
2022/11/12 03:53:21;;;;;;;45.38;31.08;;;4.40;99.90;;;;;;5023375;28;20116;-73
2022/11/12 03:55:46;;;;;;;56.00;37.55;;;4.30;99.90;;;;;;5033958;28;20117;-73
2022/11/12 03:58:12;;;;;;;38.20;30.25;;;4.30;99.90;;;;;;5046373;28;20190;-72
2022/11/12 04:00:41;;;;;;;43.47;31.95;;;4.40;99.90;;;;;;5056732;28;20041;-72
2022/11/12 04:03:06;;;;;;;34.03;26.15;;;4.40;99.90;;;;;;5057357;28;20049;-73
2022/11/12 04:08:37;;;;;;;52.03;35.08;;;4.30;99.90;;;;;;5057366;28;20361;-75
2022/11/12 04:11:11;;;;;;;48.78;32.40;;;4.40;99.90;;;;;;5023228;28;20084;-72
2022/11/12 04:13:38;;;;;;;41.42;32.03;;;4.30;99.90;;;;;;5055866;28;20349;-71
2022/11/12 04:21:55;;;;;;;44.97;30.42;;;4.20;99.90;;;;;;5057120;28;20037;-74
2022/11/12 04:27:11;;;;;;;41.03;28.92;;;4.20;99.90;;;;;;5057110;28;20041;-73
2022/11/12 04:32:21;;;;;;;44.30;32.92;;;4.10;99.90;;;;;;5056992;28;20127;-72
2022/11/12 04:34:47;;;;;;;42.53;30.45;;;4.50;99.90;;;;;;5056909;28;20577;-73
2022/11/12 04:37:13;;;;;;;41.95;31.02;;;4.00;99.90;;;;;;5056843;28;20036;-71
2022/11/12 04:39:39;;;;;;;41.20;28.63;;;4.00;99.90;;;;;;5049847;28;20043;-73
2022/11/12 04:47:34;;;;;;;33.38;26.50;;;3.90;99.90;;;;;;5036784;28;20071;-73
2022/11/12 04:50:02;;;;;;;44.30;29.80;;;3.90;99.90;;;;;;5015855;28;20038;-73
2022/11/12 04:52:28;;;;;;;33.25;27.65;;;3.90;99.90;;;;;;5055707;28;20413;-72
2022/11/12 04:54:57;;;;;;;37.45;28.80;;;4.50;99.90;;;;;;5039001;28;20045;-72
2022/11/12 04:57:23;;;;;;;32.60;26.85;;;3.90;99.90;;;;;;5039046;28;20076;-73
2022/11/12 04:59:49;;;;;;;38.15;29.40;;;3.90;99.90;;;;;;5031497;28;20407;-72
2022/11/12 05:02:16;;;;;;;46.55;34.72;;;3.90;99.90;;;;;;5048826;28;20429;-73
2022/11/12 05:04:42;;;;;;;43.22;33.65;;;3.90;99.90;;;;;;5056110;28;20063;-73
2022/11/12 05:07:08;;;;;;;58.78;38.83;;;3.90;99.90;;;;;;5056399;28;20056;-71
2022/11/12 05:09:35;;;;;;;42.78;32.83;;;3.90;99.90;;;;;;5056353;28;20037;-72
2022/11/12 05:12:01;;;;;;;42.08;31.17;;;4.00;99.90;;;;;;5032540;28;20041;-72
2022/11/12 05:14:26;;;;;;;40.72;28.73;;;4.00;99.90;;;;;;5048739;28;20102;-72
2022/11/12 05:16:52;;;;;;;34.60;26.98;;;3.90;99.90;;;;;;5053280;28;20084;-72
2022/11/12 05:19:18;;;;;;;41.20;31.17;;;4.00;99.90;;;;;;5037864;28;20504;-71
2022/11/12 05:24:28;;;;;;;40.20;30.85;;;3.90;99.90;;;;;;5055954;28;20112;-71
2022/11/12 05:26:54;;;;;;;61.88;41.58;;;3.90;99.90;;;;;;5055969;28;20397;-73
2022/11/12 05:29:19;;;;;;;56.15;35.97;;;3.90;99.90;;;;;;5042405;28;20049;-74
2022/11/12 05:31:45;;;;;;;40.03;30.92;;;3.90;99.90;;;;;;5049854;28;20449;-73
2022/11/12 05:34:11;;;;;;;41.85;32.28;;;4.00;99.90;;;;;;5035307;28;20076;-72
2022/11/12 05:36:37;;;;;;;46.38;34.22;;;3.90;99.90;;;;;;5036125;28;20041;-73
2022/11/12 05:39:03;;;;;;;43.22;31.80;;;3.90;99.90;;;;;;5016327;28;20060;-72
2022/11/12 05:41:29;;;;;;;34.45;27.83;;;3.90;99.90;;;;;;5035582;28;20039;-72
2022/11/12 05:43:57;;;;;;;41.65;30.15;;;3.90;99.90;;;;;;5018243;28;20059;-74
2022/11/12 05:46:23;;;;;;;42.30;32.33;;;3.90;99.90;;;;;;5043510;28;20051;-71
2022/11/12 05:48:48;;;;;;;33.88;26.77;;;3.80;99.90;;;;;;5040227;28;20398;-73
2022/11/12 05:51:15;;;;;;;48.65;35.63;;;3.80;99.90;;;;;;5000857;28;20049;-72
2022/11/12 05:53:41;;;;;;;50.70;36.67;;;3.90;99.90;;;;;;5005769;28;20077;-73
2022/11/12 05:56:08;;;;;;;64.15;42.00;;;3.90;99.90;;;;;;5018254;28;20135;-73
2022/11/12 05:58:35;;;;;;;52.35;38.10;;;4.00;99.90;;;;;;5035441;28;20132;-73
2022/11/12 06:01:01;;;;;;;43.40;33.08;;;4.00;99.90;;;;;;5017946;28;20073;-72
2022/11/12 06:03:27;;;;;;;44.33;34.15;;;4.00;99.90;;;;;;5035325;28;20533;-73
2022/11/12 06:05:53;;;;;;;48.65;34.90;;;4.00;99.90;;;;;;5008571;28;20042;-75
2022/11/12 06:08:19;;;;;;;40.75;31.17;;;4.00;99.90;;;;;;5031087;28;20049;-72
2022/11/12 06:10:48;;;;;;;37.22;30.42;;;4.00;99.90;;;;;;5015502;28;20038;-72
2022/11/12 06:13:15;;;;;;;32.58;25.75;;;3.90;99.90;;;;;;5015991;28;20466;-71
2022/11/12 06:15:41;;;;;;;32.60;25.25;;;3.90;99.90;;;;;;5015369;28;20130;-72
2022/11/12 06:18:07;;;;;;;41.72;30.40;;;3.90;99.90;;;;;;5015611;28;20429;-72
2022/11/12 06:20:33;;;;;;;53.00;38.08;;;3.90;99.90;;;;;;5015436;28;20086;-72
2022/11/12 06:22:59;;;;;;;53.55;38.20;;;3.90;99.90;;;;;;5015380;28;20077;-73
2022/11/12 06:25:25;;;;;;;41.50;32.40;;;3.90;99.90;;;;;;5030588;28;20108;-70
2022/11/12 06:27:51;;;;;;;51.95;36.83;;;3.90;99.90;;;;;;5032952;28;20477;-71
2022/11/12 06:30:17;;;;;;;36.88;29.80;;;4.60;99.90;;;;;;5030719;28;20157;-71
2022/11/12 06:32:47;;;;;;;39.50;31.15;;;4.00;99.90;;;;;;5019873;28;20034;-71
2022/11/12 06:35:14;;;;;;;48.33;34.10;;;3.90;99.90;;;;;;5015212;28;20042;-73
2022/11/12 06:37:39;;;;;;;43.55;31.67;;;3.90;99.90;;;;;;4997853;28;20049;-71
2022/11/12 06:40:06;;;;;;;41.38;31.08;;;4.00;99.90;;;;;;4998049;28;20046;-72
2022/11/12 06:42:32;;;;;;;35.58;27.33;;;3.90;99.90;;;;;;5015138;28;20037;-73
2022/11/12 06:44:57;;;;;;;43.15;31.13;;;4.00;99.90;;;;;;5031079;28;20057;-71
2022/11/12 06:47:23;;;;;;;42.55;31.05;;;3.90;99.90;;;;;;5030509;28;20050;-73
2022/11/12 06:49:48;;;;;;;36.40;27.17;;;3.80;99.90;;;;;;5031999;28;20037;-73
2022/11/12 06:52:14;;;;;;;37.30;28.67;;;3.80;99.90;;;;;;5035045;28;20038;-74
2022/11/12 06:54:40;;;;;;;44.47;32.75;;;3.80;99.90;;;;;;5034240;28;20041;-73
2022/11/12 06:57:06;;;;;;;39.47;31.23;;;3.80;99.90;;;;;;4992743;28;20052;-73
2022/11/12 06:59:31;;;;;;;39.80;30.67;;;3.90;99.90;;;;;;5015235;28;20050;-72
2022/11/12 07:01:57;;;;;;;50.33;35.28;;;3.90;99.90;;;;;;4997823;28;20340;-73
2022/11/12 07:04:25;;;;;;;41.30;33.08;;;4.00;99.90;;;;;;5014516;28;20068;-73
2022/11/12 07:06:51;;;;;;;51.55;35.67;;;4.10;99.90;;;;;;5015105;28;20125;-73
2022/11/12 07:09:17;;;;;;;45.33;35.78;;;4.20;99.90;;;;;;5030754;28;20132;-73
2022/11/12 07:11:42;;;;;;;51.60;38.33;;;4.30;99.90;;;;;;5021136;28;20533;-72
2022/11/12 07:14:08;;;;;;;54.05;38.65;;;4.40;99.90;;;;;;5034202;28;20091;-72
2022/11/12 07:16:34;;;;;;;53.78;40.15;;;4.50;99.90;;;;;;5000753;28;20064;-73
2022/11/12 07:19:00;;;;;;;47.83;35.00;;;4.60;99.90;;;;;;5034948;28;20081;-71
2022/11/12 07:21:25;;;;;;;51.33;35.97;;;4.70;99.90;;;;;;5035312;28;20406;-70
2022/11/12 07:23:51;;;;;;;71.45;42.33;;;4.80;99.90;;;;;;5034432;28;20353;-71
2022/11/12 07:26:22;;;;;;;143.88;57.83;;;4.90;99.90;;;;;;5032619;28;20060;-72
2022/11/12 07:28:49;;;;;;;85.45;46.67;;;5.00;99.90;;;;;;5014866;28;20037;-71
2022/11/12 07:31:17;;;;;;;98.15;51.38;;;5.10;99.90;;;;;;4997624;28;20057;-70
2022/11/12 07:33:43;;;;;;;97.88;46.97;;;5.20;99.90;;;;;;5014787;28;20524;-71
2022/11/12 07:36:13;;;;;;;120.13;49.00;;;5.30;99.90;;;;;;5014818;28;20052;-70
2022/11/12 07:38:41;;;;;;;86.35;42.13;;;5.30;99.90;;;;;;5014663;28;20089;-70
2022/11/12 07:41:10;;;;;;;122.70;51.75;;;5.40;99.90;;;;;;5016852;28;20077;-70
2022/11/12 07:43:37;;;;;;;114.40;45.58;;;5.50;99.90;;;;;;5033697;28;20048;-72
2022/11/12 07:46:11;;;;;;;90.55;37.55;;;5.50;99.90;;;;;;5016669;28;20125;-71
2022/11/12 07:48:41;;;;;;;206.32;57.17;;;5.60;99.90;;;;;;5034200;28;20037;-72
2022/11/12 07:51:27;;;;;;;170.98;50.22;;;5.70;99.90;;;;;;5034354;28;20113;-72
2022/11/12 07:53:56;;;;;;;246.50;54.92;;;5.70;99.90;;;;;;5035452;28;20049;-71
2022/11/12 07:56:23;;;;;;;308.88;53.75;;;5.80;99.90;;;;;;5035730;28;20045;-71
2022/11/12 07:58:50;;;;;;;95.70;42.05;;;5.90;99.90;;;;;;5018014;28;20042;-69
2022/11/12 08:01:15;;;;;;;150.38;42.85;;;5.90;99.90;;;;;;5017983;28;20092;-69
2022/11/12 08:03:41;;;;;;;215.60;49.58;;;6.00;99.90;;;;;;5008974;28;20085;-70
2022/11/12 08:06:07;;;;;;;386.08;69.60;;;6.10;99.90;;;;;;4998122;28;20558;-70
2022/11/12 08:08:32;;;;;;;113.95;41.60;;;6.10;99.90;;;;;;4998293;28;20046;-70
2022/11/12 08:10:58;;;;;;;204.88;51.53;;;6.20;99.90;;;;;;5013502;28;20422;-70
2022/11/12 08:13:24;;;;;;;110.68;43.35;;;6.20;99.90;;;;;;4998234;28;20376;-70
2022/11/12 08:15:50;;;;;;;281.65;59.05;;;6.30;99.90;;;;;;5013580;28;20050;-70
2022/11/12 08:18:16;;;;;;;178.95;45.67;;;6.30;99.90;;;;;;4998168;28;20073;-69
2022/11/12 08:20:42;;;;;;;194.70;44.70;;;6.80;99.90;;;;;;4998025;28;20077;-71
2022/11/12 08:23:08;;;;;;;312.35;61.22;;;6.40;99.90;;;;;;4998000;28;20038;-70
2022/11/12 08:25:35;;;;;;;211.32;47.03;;;6.40;99.90;;;;;;4998038;28;20060;-71
2022/11/12 08:28:00;;;;;;;285.58;59.00;;;6.50;99.90;;;;;;5017158;28;20042;-70
2022/11/12 08:30:27;;;;;;;306.65;60.92;;;6.60;99.90;;;;;;5017389;28;20072;-70
2022/11/12 08:33:03;;;;;;;209.88;54.10;;;6.60;99.90;;;;;;5017344;28;20077;-70
2022/11/12 08:35:31;;;;;;;188.32;46.95;;;6.70;99.90;;;;;;5017325;28;20474;-70
2022/11/12 08:38:01;;;;;;;286.38;60.30;;;6.70;99.90;;;;;;5017545;28;20042;-69
2022/11/12 08:40:30;;;;;;;174.25;48.38;;;6.80;99.90;;;;;;5015981;28;20057;-70
2022/11/12 08:43:00;;;;;;;183.85;46.97;;;6.80;99.90;;;;;;4997362;28;20042;-70
2022/11/12 08:45:26;;;;;;;272.52;51.08;;;6.90;99.90;;;;;;4997616;28;20524;-70
2022/11/12 08:47:58;;;;;;;270.23;48.35;;;6.90;99.90;;;;;;4997512;28;20121;-73
2022/11/12 08:50:23;;;;;;;357.67;60.25;;;7.00;99.90;;;;;;4964216;28;20042;-71
2022/11/12 08:52:49;;;;;;;291.20;57.58;;;7.10;99.90;;;;;;4964544;28;20185;-69
2022/11/12 08:55:14;;;;;;;203.82;51.22;;;7.10;99.90;;;;;;4997711;28;20119;-69
2022/11/12 08:57:44;;;;;;;175.77;45.78;;;7.10;99.90;;;;;;5013047;28;20057;-70
2022/11/12 09:00:11;;;;;;;137.23;46.72;;;7.20;99.90;;;;;;5016481;28;20041;-70
2022/11/12 09:02:40;;;;;;;258.52;51.17;;;7.30;99.90;;;;;;5016424;28;20466;-70
2022/11/12 09:05:06;;;;;;;189.15;48.58;;;7.40;99.90;;;;;;5036484;28;20081;-71
2022/11/12 09:07:32;;;;;;;158.60;42.38;;;7.40;99.90;;;;;;5036674;28;20136;-71
2022/11/12 09:09:57;;;;;;;145.50;39.05;;;7.40;99.90;;;;;;5037273;28;20045;-71
2022/11/12 09:12:23;;;;;;;163.45;39.33;;;7.50;99.90;;;;;;5036457;28;20033;-71
2022/11/12 09:14:49;;;;;;;90.95;34.25;;;7.50;99.90;;;;;;5036279;28;20492;-72
2022/11/12 09:17:14;;;;;;;132.88;39.53;;;7.60;99.90;;;;;;5027555;28;20093;-70
2022/11/12 09:19:40;;;;;;;175.90;42.97;;;7.60;99.90;;;;;;5016543;28;20033;-70
2022/11/12 09:22:06;;;;;;;362.48;52.63;;;7.70;99.90;;;;;;5016479;28;20038;-70
2022/11/12 09:24:32;;;;;;;416.70;65.45;;;7.80;99.90;;;;;;5016246;28;20050;-71
2022/11/12 09:26:57;;;;;;;138.05;37.35;;;7.80;99.90;;;;;;5032794;28;20037;-70
2022/11/12 09:29:23;;;;;;;173.25;39.10;;;7.90;99.90;;;;;;5017939;28;20041;-70
2022/11/12 09:31:49;;;;;;;246.18;46.25;;;8.00;99.90;;;;;;5035300;28;20049;-70
2022/11/12 09:34:14;;;;;;;210.23;42.97;;;8.00;99.90;;;;;;5034933;28;20126;-71
2022/11/12 09:36:40;;;;;;;121.70;36.72;;;8.10;99.90;;;;;;5033743;28;20045;-70
2022/11/12 09:39:06;;;;;;;150.20;40.95;;;8.10;99.90;;;;;;5035548;28;20330;-71
2022/11/12 09:41:34;;;;;;;303.35;49.58;;;8.20;99.90;;;;;;5035589;28;20075;-70
2022/11/12 09:44:15;;;;;;;101.05;39.55;;;8.30;99.90;;;;;;5035668;28;20051;-70
2022/11/12 09:47:12;;;;;;;141.60;40.95;;;8.50;99.90;;;;;;5035042;28;20326;-69
2022/11/12 09:50:00;;;;;;;156.80;36.03;;;8.40;99.90;;;;;;5017865;28;20045;-71
2022/11/12 09:52:28;;;;;;;266.48;45.05;;;8.40;99.90;;;;;;5035575;28;20413;-72
2022/11/12 09:55:13;;;;;;;176.38;39.88;;;8.50;99.90;;;;;;5035611;28;20443;-72
2022/11/12 09:57:39;;;;;;;117.72;35.38;;;8.40;99.90;;;;;;5035687;28;20472;-71
2022/11/12 10:00:19;;;;;;;206.65;43.63;;;8.40;99.90;;;;;;5036120;28;20041;-71
2022/11/12 10:03:11;;;;;;;273.35;41.55;;;8.40;99.90;;;;;;5020440;28;20076;-71
2022/11/12 10:05:48;;;;;;;189.48;38.40;;;8.50;99.90;;;;;;5015689;28;20041;-72
2022/11/12 10:08:30;;;;;;;267.00;51.65;;;8.30;99.90;;;;;;5015724;28;20073;-72
2022/11/12 10:18:08;;;;;;;65.43;33.22;;;8.40;99.90;;;;;;5032562;28;20053;-71
2022/11/12 10:20:40;;;;;;;137.45;42.25;;;8.40;99.90;;;;;;5034797;28;20072;-71
2022/11/12 10:23:12;;;;;;;144.10;41.38;;;8.50;99.90;;;;;;5035062;28;20049;-72
2022/11/12 10:25:41;;;;;;;108.40;37.33;;;8.50;99.90;;;;;;5035555;28;20049;-71
2022/11/12 10:28:28;;;;;;;76.07;36.15;;;9.00;99.90;;;;;;5035864;28;20045;-71
2022/11/12 10:30:59;;;;;;;55.95;35.85;;;8.70;99.90;;;;;;5011949;28;20089;-72
2022/11/12 10:33:29;;;;;;;62.95;39.17;;;8.70;99.90;;;;;;5014885;28;20132;-71
2022/11/12 10:36:04;;;;;;;72.53;42.85;;;8.80;99.90;;;;;;5018458;28;20052;-72
2022/11/12 10:38:33;;;;;;;54.22;38.50;;;8.90;99.90;;;;;;5041144;28;20076;-71
2022/11/12 10:41:16;;;;;;;64.78;38.65;;;9.00;99.90;;;;;;5043599;28;20055;-71
2022/11/12 10:44:05;;;;;;;62.13;41.42;;;9.00;99.90;;;;;;5027403;28;20191;-71
2022/11/12 10:46:36;;;;;;;86.35;47.58;;;9.10;99.90;;;;;;5007356;28;20117;-71
2022/11/12 10:49:06;;;;;;;60.22;41.67;;;9.10;99.90;;;;;;5015125;28;20054;-72
2022/11/12 10:51:34;;;;;;;64.90;40.45;;;9.10;99.90;;;;;;4997541;28;20050;-71
2022/11/12 10:54:25;;;;;;;62.92;44.85;;;9.50;99.90;;;;;;5015118;28;20034;-71
2022/11/12 10:56:52;;;;;;;69.57;44.42;;;9.20;99.90;;;;;;5034038;28;20033;-72
2022/11/12 10:59:25;;;;;;;80.50;44.78;;;9.30;99.90;;;;;;5038345;28;20441;-71
2022/11/12 11:01:56;;;;;;;68.47;42.78;;;9.30;99.90;;;;;;5038896;28;20112;-72
2022/11/12 11:04:34;;;;;;;66.80;43.17;;;9.30;99.90;;;;;;5035917;28;20053;-70
2022/11/12 11:07:23;;;;;;;59.05;41.90;;;9.20;99.90;;;;;;5034363;28;20104;-68
2022/11/12 11:09:55;;;;;;;67.50;45.72;;;9.20;99.90;;;;;;5034663;28;20346;-71
2022/11/12 11:12:32;;;;;;;58.40;41.45;;;9.20;99.90;;;;;;5034774;28;20034;-71
2022/11/12 11:15:12;;;;;;;56.67;40.78;;;9.30;99.90;;;;;;5033038;28;20034;-71
2022/11/12 11:17:41;;;;;;;53.00;35.85;;;9.30;99.90;;;;;;5017258;28;20398;-72
2022/11/12 11:20:23;;;;;;;46.13;34.45;;;9.30;99.90;;;;;;5034682;28;20099;-72
2022/11/12 11:23:01;;;;;;;42.22;33.58;;;9.30;99.90;;;;;;5032313;28;20045;-71
2022/11/12 11:25:28;;;;;;;44.70;35.38;;;9.30;99.90;;;;;;5034766;28;20053;-72
2022/11/12 11:27:53;;;;;;;45.25;36.17;;;9.40;99.90;;;;;;5034464;28;20049;-72
2022/11/12 11:30:20;;;;;;;46.83;37.10;;;9.40;99.90;;;;;;5030570;28;20366;-71
2022/11/12 11:33:04;;;;;;;43.17;33.05;;;9.60;99.90;;;;;;5001398;28;20085;-71
2022/11/12 11:35:45;;;;;;;35.15;29.42;;;9.60;99.90;;;;;;5018605;28;20097;-71
2022/11/12 11:38:40;;;;;;;35.63;30.42;;;9.70;99.90;;;;;;5018432;28;20050;-73
2022/11/12 11:41:32;;;;;;;29.10;24.95;;;9.80;99.90;;;;;;5018736;28;20038;-73
2022/11/12 11:44:29;;;;;;;36.58;28.00;;;9.80;99.90;;;;;;5018494;28;20053;-72
2022/11/12 11:47:26;;;;;;;32.55;28.38;;;9.80;99.90;;;;;;5027052;28;20355;-72
2022/11/12 11:50:32;;;;;;;29.77;25.13;;;10.00;99.90;;;;;;5028528;28;20046;-71
2022/11/12 11:53:01;;;;;;;30.35;26.30;;;10.00;99.90;;;;;;5031923;28;20048;-70
2022/11/12 11:55:34;;;;;;;29.23;25.90;;;10.10;99.90;;;;;;5037863;28;20057;-71
2022/11/12 11:58:25;;;;;;;29.02;24.45;;;10.10;99.90;;;;;;5037804;28;20049;-70
2022/11/12 12:01:18;;;;;;;28.95;25.33;;;10.20;99.90;;;;;;5024711;28;20050;-70
2022/11/12 12:03:58;;;;;;;26.83;22.20;;;10.40;99.90;;;;;;5030269;28;20092;-71
2022/11/12 12:06:27;;;;;;;25.88;22.70;;;10.40;99.90;;;;;;5035365;28;20060;-69
2022/11/12 12:09:25;;;;;;;27.02;23.42;;;10.40;99.90;;;;;;5037935;28;20125;-72
2022/11/12 12:12:08;;;;;;;26.35;23.55;;;10.50;99.90;;;;;;5009420;28;20121;-71
2022/11/12 12:14:45;;;;;;;25.73;21.10;;;10.60;99.90;;;;;;5000422;28;20050;-70
2022/11/12 12:17:14;;;;;;;25.58;22.13;;;10.60;99.90;;;;;;5017864;28;20045;-71
2022/11/12 12:19:45;;;;;;;24.63;21.17;;;10.80;99.90;;;;;;5017820;28;20048;-71
2022/11/12 12:22:23;;;;;;;26.02;19.27;;;10.90;99.90;;;;;;5000109;28;20474;-72
2022/11/12 12:25:11;;;;;;;18.95;16.95;;;10.90;99.90;;;;;;5017577;28;20034;-71
2022/11/12 12:27:48;;;;;;;19.58;17.48;;;11.00;99.90;;;;;;5017116;28;20573;-71
2022/11/12 12:30:20;;;;;;;19.88;17.42;;;11.00;99.90;;;;;;5018104;28;20046;-72
2022/11/12 12:32:54;;;;;;;19.13;17.02;;;11.00;99.90;;;;;;5017475;28;20045;-72
2022/11/12 12:35:29;;;;;;;20.95;17.30;;;11.20;99.90;;;;;;5017408;28;20089;-71
2022/11/12 12:38:10;;;;;;;19.77;16.67;;;11.10;99.90;;;;;;5016207;28;20042;-71
2022/11/12 12:41:14;;;;;;;21.20;17.33;;;11.10;99.90;;;;;;5019641;28;20048;-70
2022/11/12 12:43:51;;;;;;;19.58;16.42;;;11.10;99.90;;;;;;5002607;28;20049;-72
2022/11/12 12:46:21;;;;;;;18.73;16.73;;;11.00;99.90;;;;;;5036780;28;20100;-72
2022/11/12 12:48:50;;;;;;;18.27;16.00;;;11.00;99.90;;;;;;5034703;28;20051;-70
2022/11/12 12:51:17;;;;;;;19.65;16.67;;;11.00;99.90;;;;;;5036836;28;20041;-71
2022/11/12 12:53:42;;;;;;;18.58;16.67;;;10.90;99.90;;;;;;5036275;28;20507;-72
2022/11/12 12:56:14;;;;;;;19.42;17.27;;;10.90;99.90;;;;;;5018297;28;20132;-72
2022/11/12 12:58:43;;;;;;;17.42;15.60;;;11.00;99.90;;;;;;5024533;28;20070;-72
2022/11/12 13:01:21;;;;;;;18.55;16.42;;;11.00;99.90;;;;;;5017136;28;20113;-71
2022/11/12 13:04:07;;;;;;;18.23;16.33;;;10.90;99.90;;;;;;4999284;28;20057;-72
2022/11/12 13:06:34;;;;;;;20.70;17.45;;;11.00;99.90;;;;;;5016774;28;20046;-73
2022/11/12 13:09:23;;;;;;;18.42;16.48;;;11.00;99.90;;;;;;5020985;28;20041;-71
2022/11/12 13:14:30;;;;;;;19.35;15.98;;;11.00;99.90;;;;;;5053731;28;20068;-72
2022/11/12 13:17:05;;;;;;;17.88;15.98;;;11.00;99.90;;;;;;5032518;28;20041;-72
2022/11/12 13:19:51;;;;;;;21.23;17.80;;;11.00;99.90;;;;;;5031242;28;20090;-72